Time;durP1;ratioP1;P1;durP2;ratioP2;P2;SDS_P1;SDS_P2;PMS_P1;PMS_P2;Temp;Humidity;BMP_temperature;BMP_pressure;BME280_temperature;BME280_humidity;BME280_pressure;Samples;Min_cycle;Max_cycle;Signal;HPM_P1;HPM_P2
2023/07/20 00:00:00;;;;;;;6.50;6.00;;;;;;;27.36;55.93;99003.38;5075685;28;20245;-69
2023/07/20 00:02:27;;;;;;;6.73;6.13;;;;;;;27.52;55.37;99018.16;5075709;28;20234;-69
2023/07/20 00:04:54;;;;;;;8.10;5.97;;;;;;;27.48;54.67;99020.72;5075556;28;20254;-69
2023/07/20 00:07:20;;;;;;;7.20;6.50;;;;;;;27.36;54.53;99045.06;5075342;28;20195;-70
2023/07/20 00:09:48;;;;;;;11.80;6.53;;;;;;;27.47;54.05;99040.13;5075469;28;20192;-69
2023/07/20 00:12:15;;;;;;;6.83;6.13;;;;;;;27.32;54.40;99048.75;5075382;28;20227;-70
2023/07/20 00:14:42;;;;;;;8.97;5.73;;;;;;;27.34;54.46;99041.06;5075482;28;20245;-70
2023/07/20 00:17:08;;;;;;;7.20;6.20;;;;;;;27.65;54.82;99044.53;5075421;28;20192;-70
2023/07/20 00:19:35;;;;;;;7.53;6.33;;;;;;;27.93;52.52;99033.03;5075375;28;20200;-70
2023/07/20 00:22:04;;;;;;;10.53;6.00;;;;;;;28.13;52.31;99018.72;5075326;28;20204;-70
2023/07/20 00:24:31;;;;;;;18.57;6.20;;;;;;;28.28;50.92;99001.88;5075027;28;20195;-70
2023/07/20 00:27:00;;;;;;;9.33;6.30;;;;;;;28.43;50.37;98992.38;5075249;28;20195;-70
2023/07/20 00:29:27;;;;;;;6.67;5.97;;;;;;;28.25;51.28;98974.38;5075291;28;20199;-71
2023/07/20 00:31:54;;;;;;;10.03;6.33;;;;;;;28.10;51.17;98962.00;5075061;28;20220;-70
2023/07/20 00:34:20;;;;;;;7.60;6.07;;;;;;;28.05;50.94;98964.13;5074777;28;20277;-70
2023/07/20 00:36:48;;;;;;;8.17;5.70;;;;;;;27.99;50.73;98962.66;5074733;28;20230;-70
2023/07/20 00:39:15;;;;;;;7.87;5.80;;;;;;;27.92;50.15;98959.63;5074689;28;20257;-70
2023/07/20 00:41:42;;;;;;;8.33;5.50;;;;;;;27.88;50.26;98942.28;5074135;28;20192;-70
2023/07/20 00:44:10;;;;;;;10.40;6.47;;;;;;;28.04;49.50;98937.91;5074954;28;20196;-70
2023/07/20 00:46:37;;;;;;;6.43;5.90;;;;;;;28.25;48.91;98930.66;5074512;28;20242;-70
2023/07/20 00:49:03;;;;;;;9.37;5.57;;;;;;;28.36;48.49;98921.00;5074509;28;20552;-70
2023/07/20 00:51:30;;;;;;;9.57;5.80;;;;;;;28.30;49.08;98923.09;5074320;28;20599;-71
2023/07/20 00:53:57;;;;;;;6.57;6.07;;;;;;;28.40;48.56;98932.88;5074755;28;20191;-69
2023/07/20 00:56:24;;;;;;;8.13;5.10;;;;;;;28.61;48.35;98940.09;5074599;28;20196;-70
2023/07/20 00:58:51;;;;;;;7.67;5.47;;;;;;;28.81;48.86;98944.84;5074351;28;20200;-70
2023/07/20 01:01:19;;;;;;;9.60;6.07;;;;;;;28.97;47.57;98936.88;5074493;28;20196;-70
2023/07/20 01:03:47;;;;;;;6.70;5.70;;;;;;;29.06;46.71;98945.88;5074537;28;20188;-70
2023/07/20 01:06:26;;;;;;;6.97;6.10;;;;;;;29.09;46.37;98947.94;5073994;28;20192;-70
2023/07/20 01:09:03;;;;;;;12.77;6.13;;;;;;;29.18;46.39;98945.97;5074743;28;20212;-70
2023/07/20 01:11:38;;;;;;;9.73;5.50;;;;;;;29.16;45.90;98940.03;5074351;28;20261;-70
2023/07/20 01:14:06;;;;;;;9.60;6.50;;;;;;;29.23;46.06;98940.28;5074416;28;20240;-71
2023/07/20 01:16:35;;;;;;;8.57;5.77;;;;;;;29.25;46.40;98935.31;5074450;28;20629;-70
2023/07/20 01:19:01;;;;;;;8.40;5.37;;;;;;;29.27;46.62;98921.28;5073993;28;20192;-70
2023/07/20 01:21:41;;;;;;;10.17;5.53;;;;;;;29.27;46.14;98915.81;5073816;28;20590;-70
2023/07/20 01:24:50;;;;;;;11.90;5.90;;;;;;;29.31;46.65;98911.28;5074294;28;20271;-71
2023/07/20 01:27:59;;;;;;;7.27;5.73;;;;;;;29.26;47.09;98904.06;5073691;28;20195;-70
2023/07/20 01:30:54;;;;;;;9.33;5.87;;;;;;;29.23;47.05;98900.06;5066927;28;20265;-71
2023/07/20 01:33:25;;;;;;;6.73;5.77;;;;;;;29.19;46.37;98901.84;5073932;28;20695;-70
2023/07/20 01:35:55;;;;;;;13.37;6.13;;;;;;;29.20;47.25;98897.19;5073978;28;20695;-70
2023/07/20 01:38:23;;;;;;;8.53;5.70;;;;;;;29.11;46.67;98897.25;5073643;28;20617;-70
2023/07/20 01:40:51;;;;;;;8.43;5.10;;;;;;;28.97;47.16;98898.59;5073900;28;20242;-70
2023/07/20 01:43:18;;;;;;;6.73;5.57;;;;;;;29.03;47.65;98895.34;5073749;28;20265;-70
2023/07/20 01:45:45;;;;;;;11.23;5.97;;;;;;;29.01;46.71;98899.56;5073606;28;20200;-70
2023/07/20 01:48:12;;;;;;;10.37;6.00;;;;;;;29.01;47.38;98896.81;5073739;28;20619;-70
2023/07/20 01:50:40;;;;;;;10.90;5.97;;;;;;;29.05;47.61;98897.75;5073582;28;20195;-70
2023/07/20 01:53:07;;;;;;;15.07;5.73;;;;;;;29.08;47.20;98900.63;5072677;28;20228;-71
2023/07/20 01:55:33;;;;;;;8.60;5.33;;;;;;;29.09;47.44;98894.03;5073472;28;20192;-71
2023/07/20 01:58:01;;;;;;;12.20;5.67;;;;;;;29.11;47.73;98886.28;5073521;28;20261;-70
2023/07/20 02:00:28;;;;;;;8.50;5.70;;;;;;;29.16;47.36;98896.25;5073064;28;20701;-70
2023/07/20 02:02:55;;;;;;;12.33;6.83;;;;;;;29.17;47.64;98897.84;5073442;28;20196;-70
2023/07/20 02:05:21;;;;;;;9.30;5.77;;;;;;;29.19;47.86;98912.00;5073314;28;20199;-70
2023/07/20 02:07:49;;;;;;;10.20;6.10;;;;;;;29.24;48.17;98909.09;5072868;28;20655;-70
2023/07/20 02:10:17;;;;;;;8.57;5.97;;;;;;;29.26;48.10;98912.28;5073207;28;20200;-70
2023/07/20 02:12:43;;;;;;;8.50;5.83;;;;;;;29.27;47.40;98911.13;5073011;28;20219;-69
2023/07/20 02:15:13;;;;;;;10.00;5.63;;;;;;;29.27;47.81;98905.66;5073210;28;20281;-71
2023/07/20 02:17:40;;;;;;;9.10;6.30;;;;;;;29.27;47.69;98913.88;5072953;28;20196;-71
2023/07/20 02:20:09;;;;;;;6.33;5.77;;;;;;;29.23;47.73;98906.69;5072706;28;20671;-71
2023/07/20 02:22:36;;;;;;;6.83;5.80;;;;;;;29.21;47.89;98909.75;5073003;28;20290;-71
2023/07/20 02:25:05;;;;;;;10.57;5.83;;;;;;;29.19;47.63;98912.00;5073008;28;20231;-70
2023/07/20 02:27:31;;;;;;;12.40;5.77;;;;;;;29.19;47.48;98906.50;5072651;28;20196;-70
2023/07/20 02:29:58;;;;;;;11.97;5.50;;;;;;;29.22;48.10;98905.06;5072572;28;20199;-71
2023/07/20 02:32:25;;;;;;;10.10;6.10;;;;;;;29.22;47.81;98910.56;5072685;28;20219;-69
2023/07/20 02:34:52;;;;;;;16.10;6.07;;;;;;;29.16;47.93;98915.41;5072593;28;20228;-69
2023/07/20 02:37:19;;;;;;;10.60;6.30;;;;;;;29.10;46.78;98909.31;5072642;28;20192;-70
2023/07/20 02:39:45;;;;;;;14.43;6.10;;;;;;;29.06;47.22;98907.56;5072769;28;20187;-70
2023/07/20 02:42:15;;;;;;;8.20;5.77;;;;;;;29.04;47.23;98905.16;5072262;28;20714;-71
2023/07/20 02:44:41;;;;;;;10.20;5.83;;;;;;;29.04;46.89;98907.09;5072536;28;20192;-71
2023/07/20 02:47:08;;;;;;;9.00;5.87;;;;;;;29.05;47.28;98900.50;5072160;28;20204;-71
2023/07/20 02:49:35;;;;;;;13.47;7.13;;;;;;;29.04;47.65;98904.38;5072249;28;20729;-71
2023/07/20 02:52:02;;;;;;;6.63;5.80;;;;;;;29.06;47.94;98910.31;5072032;28;20652;-71
2023/07/20 02:54:30;;;;;;;12.13;6.67;;;;;;;29.11;48.38;98912.84;5072873;28;20265;-71
2023/07/20 02:56:57;;;;;;;15.43;6.90;;;;;;;29.09;48.64;98902.25;5072657;28;20206;-71
2023/07/20 02:59:25;;;;;;;8.37;5.63;;;;;;;29.09;48.04;98902.25;5072158;28;20191;-71
2023/07/20 03:01:51;;;;;;;11.03;6.50;;;;;;;29.11;48.45;98902.72;5072002;28;20756;-70
2023/07/20 03:04:18;;;;;;;8.07;6.40;;;;;;;29.07;48.83;98898.22;5072115;28;20199;-71
2023/07/20 03:06:45;;;;;;;13.77;6.80;;;;;;;29.05;48.89;98895.03;5072313;28;20200;-70
2023/07/20 03:09:11;;;;;;;13.97;6.40;;;;;;;29.03;48.38;98895.34;5072316;28;20188;-71
2023/07/20 03:11:38;;;;;;;22.90;6.80;;;;;;;28.94;48.96;98889.09;5071862;28;20736;-70
2023/07/20 03:14:05;;;;;;;14.73;7.20;;;;;;;28.90;48.85;98896.38;5072415;28;20621;-71
2023/07/20 03:16:33;;;;;;;12.70;6.67;;;;;;;28.81;48.51;98895.63;5072135;28;20246;-71
2023/07/20 03:19:00;;;;;;;23.43;7.20;;;;;;;28.89;49.67;98891.22;5072229;28;20275;-70
2023/07/20 03:21:27;;;;;;;21.50;6.97;;;;;;;28.98;49.29;98891.97;5071702;28;20196;-70
2023/07/20 03:23:54;;;;;;;18.93;7.27;;;;;;;28.99;49.03;98890.88;5072159;28;20200;-70
2023/07/20 03:26:20;;;;;;;16.10;7.37;;;;;;;29.00;48.84;98887.03;5072058;28;20192;-71
2023/07/20 03:28:48;;;;;;;31.37;7.93;;;;;;;29.03;49.37;98898.09;5072285;28;20192;-70
2023/07/20 03:31:15;;;;;;;42.23;9.77;;;;;;;29.09;49.20;98895.97;5072197;28;20328;-70
2023/07/20 03:33:43;;;;;;;25.40;8.10;;;;;;;29.14;49.02;98888.38;5071575;28;20601;-70
2023/07/20 03:36:11;;;;;;;23.30;8.03;;;;;;;29.14;48.98;98887.56;5072298;28;20227;-70
2023/07/20 03:38:37;;;;;;;17.67;6.97;;;;;;;29.16;48.82;98882.56;5071646;28;20760;-70
2023/07/20 03:41:04;;;;;;;20.40;7.27;;;;;;;29.11;49.75;98871.81;5072019;28;20577;-70
2023/07/20 03:43:31;;;;;;;21.80;7.47;;;;;;;29.14;49.64;98871.16;5071869;28;20192;-70
2023/07/20 03:45:57;;;;;;;27.73;7.90;;;;;;;29.18;49.32;98874.81;5072072;28;20192;-70
2023/07/20 03:48:25;;;;;;;33.47;7.37;;;;;;;29.23;49.88;98874.63;5071786;28;20226;-69
2023/07/20 03:50:54;;;;;;;19.87;7.27;;;;;;;29.37;49.87;98868.91;5071933;28;20192;-69
2023/07/20 03:53:21;;;;;;;12.23;6.83;;;;;;;29.52;49.06;98866.34;5071436;28;20219;-69
2023/07/20 03:55:49;;;;;;;22.00;8.63;;;;;;;29.68;48.96;98875.59;5071875;28;20199;-69
2023/07/20 03:58:16;;;;;;;28.70;8.73;;;;;;;29.88;48.22;98877.50;5071423;28;20192;-71
2023/07/20 04:00:46;;;;;;;28.30;8.73;;;;;;;30.04;48.09;98878.47;5071762;28;20241;-71
2023/07/20 04:03:13;;;;;;;28.83;9.73;;;;;;;30.17;47.21;98876.59;5071461;28;20192;-70
2023/07/20 04:05:40;;;;;;;28.23;8.90;;;;;;;30.32;46.88;98884.97;5071420;28;20192;-70
2023/07/20 04:08:08;;;;;;;48.40;9.83;;;;;;;30.43;45.83;98883.41;5071620;28;20192;-70
2023/07/20 04:10:35;;;;;;;37.90;9.90;;;;;;;30.57;46.00;98891.28;5071663;28;20257;-70
2023/07/20 04:13:02;;;;;;;33.10;9.13;;;;;;;30.85;45.82;98894.97;5071297;28;20618;-68
2023/07/20 04:15:28;;;;;;;27.70;8.50;;;;;;;31.41;46.36;98894.84;5071118;28;20721;-69
2023/07/20 04:17:56;;;;;;;37.77;10.33;;;;;;;32.00;43.58;98890.31;5075312;28;20253;-69
2023/07/20 04:20:23;;;;;;;33.17;9.87;;;;;;;32.59;42.63;98891.13;5074827;28;20192;-69
2023/07/20 04:22:50;;;;;;;40.30;9.60;;;;;;;33.09;41.05;98909.69;5075054;28;20287;-69
2023/07/20 04:25:18;;;;;;;22.03;8.37;;;;;;;33.56;39.96;98895.81;5074809;28;20279;-69
2023/07/20 04:27:45;;;;;;;25.17;8.77;;;;;;;33.97;39.00;98903.41;5075136;28;20192;-70
2023/07/20 04:30:13;;;;;;;30.00;9.13;;;;;;;34.38;37.68;98911.72;5075334;28;20192;-69
2023/07/20 04:32:46;;;;;;;29.33;8.32;;;;;;;34.85;36.55;98919.63;5074895;28;20358;-70
2023/07/20 04:35:18;;;;;;;24.42;8.15;;;;;;;35.30;35.58;98919.59;5075307;28;20240;-70
2023/07/20 04:37:46;;;;;;;33.67;8.65;;;;;;;35.67;34.05;98920.50;5074947;28;20188;-68
2023/07/20 04:40:13;;;;;;;22.30;8.35;;;;;;;35.89;33.40;98914.88;5074832;28;20207;-69
2023/07/20 04:42:41;;;;;;;21.90;8.45;;;;;;;36.31;33.33;98914.63;5074694;28;20253;-69
2023/07/20 04:45:09;;;;;;;16.50;7.63;;;;;;;36.69;31.99;98930.81;5074410;28;20200;-69
2023/07/20 04:47:36;;;;;;;34.17;8.48;;;;;;;37.12;32.25;98921.69;5074266;28;20200;-69
2023/07/20 04:50:02;;;;;;;23.05;7.70;;;;;;;37.64;31.21;98921.28;5074460;28;20214;-69
2023/07/20 04:52:29;;;;;;;18.52;7.00;;;;;;;37.98;29.04;98930.13;5074616;28;20656;-69
2023/07/20 04:54:56;;;;;;;12.98;5.93;;;;;;;38.04;28.67;98939.72;5074712;28;20192;-68
2023/07/20 04:57:24;;;;;;;53.97;32.75;;;;;;;38.08;28.41;98944.09;5074508;28;20193;-70
2023/07/20 04:59:53;;;;;;;16.65;9.00;;;;;;;38.15;28.69;98952.44;5074611;28;20232;-68
2023/07/20 05:02:19;;;;;;;14.02;6.45;;;;;;;38.12;28.53;98947.66;5074227;28;20192;-69
2023/07/20 05:04:46;;;;;;;15.32;6.15;;;;;;;38.37;27.78;98953.31;5074442;28;20625;-69
2023/07/20 05:07:13;;;;;;;19.58;6.50;;;;;;;37.92;28.58;98946.38;5073979;28;20547;-69
2023/07/20 05:09:40;;;;;;;15.35;7.05;;;;;;;38.52;28.00;98952.16;5074358;28;20192;-69
2023/07/20 05:12:07;;;;;;;12.38;5.60;;;;;;;38.79;27.44;98956.97;5074370;28;20664;-69
2023/07/20 05:14:34;;;;;;;11.43;6.38;;;;;;;38.72;27.53;98951.41;5074216;28;20253;-69
2023/07/20 05:17:02;;;;;;;14.63;6.85;;;;;;;38.93;27.59;98948.66;5074248;28;20187;-69
2023/07/20 05:19:29;;;;;;;13.85;6.72;;;;;;;39.33;26.75;98944.66;5074139;28;20287;-69
2023/07/20 05:21:55;;;;;;;11.43;7.20;;;;;;;39.60;26.80;98943.84;5074049;28;20195;-69
2023/07/20 05:24:22;;;;;;;10.38;6.43;;;;;;;39.47;27.05;98950.25;5073760;28;20250;-69
2023/07/20 05:26:49;;;;;;;24.80;6.93;;;;;;;39.39;27.06;98938.31;5073339;28;20246;-69
2023/07/20 05:29:15;;;;;;;10.02;7.47;;;;;;;39.45;26.24;98928.41;5072848;28;20218;-69
2023/07/20 05:31:42;;;;;;;16.08;7.50;;;;;;;39.52;26.60;98933.91;5073755;28;20672;-69
2023/07/20 05:34:10;;;;;;;16.25;6.72;;;;;;;39.96;26.19;98933.41;5073313;28;20646;-69
2023/07/20 05:36:37;;;;;;;11.95;6.20;;;;;;;40.34;25.64;98932.47;5074121;28;20188;-69
2023/07/20 05:39:04;;;;;;;11.48;6.00;;;;;;;40.71;25.14;98933.41;5073452;28;20208;-70
2023/07/20 05:41:31;;;;;;;11.40;6.28;;;;;;;40.86;25.11;98934.88;5073845;28;20662;-68
2023/07/20 05:43:57;;;;;;;11.25;6.40;;;;;;;40.99;25.19;98932.41;5073632;28;20200;-69
2023/07/20 05:46:25;;;;;;;9.88;6.70;;;;;;;40.56;25.45;98928.31;5073768;28;20567;-69
2023/07/20 05:48:51;;;;;;;7.00;5.88;;;;;;;40.75;25.42;98927.81;5073660;28;20202;-69
2023/07/20 05:51:20;;;;;;;11.48;5.93;;;;;;;41.23;24.68;98922.25;5073345;28;20687;-69
2023/07/20 05:53:46;;;;;;;6.60;5.85;;;;;;;41.51;24.04;98922.00;5073553;28;20243;-69
2023/07/20 05:56:14;;;;;;;13.45;6.47;;;;;;;41.75;23.41;98921.69;5073576;28;20192;-69
2023/07/20 05:58:41;;;;;;;7.20;5.95;;;;;;;42.04;23.06;98922.19;5073422;28;20192;-69
2023/07/20 06:01:08;;;;;;;13.27;6.25;;;;;;;42.04;22.96;98917.38;5073076;28;20188;-69
2023/07/20 06:03:35;;;;;;;8.75;6.18;;;;;;;41.89;23.29;98915.19;5073245;28;20218;-69
2023/07/20 06:06:02;;;;;;;12.48;6.05;;;;;;;41.53;23.75;98903.63;5073047;28;20261;-69
2023/07/20 06:08:30;;;;;;;13.40;5.80;;;;;;;41.24;24.09;98899.53;5072878;28;20574;-69
2023/07/20 06:10:57;;;;;;;6.57;6.00;;;;;;;40.86;24.86;98887.50;5073288;28;20253;-69
2023/07/20 06:13:25;;;;;;;14.70;6.30;;;;;;;41.12;24.28;98900.06;5073044;28;20227;-69
2023/07/20 06:15:51;;;;;;;7.22;6.32;;;;;;;40.95;24.31;98896.19;5072828;28;20251;-69
2023/07/20 06:18:18;;;;;;;10.90;5.45;;;;;;;40.77;24.55;98898.34;5072707;28;20207;-70
2023/07/20 06:20:50;;;;;;;10.57;5.88;;;;;;;40.52;25.01;98892.16;5072950;28;20196;-69
2023/07/20 06:23:16;;;;;;;12.85;6.22;;;;;;;40.51;25.14;98887.78;5073026;28;20192;-69
2023/07/20 06:25:44;;;;;;;15.85;5.72;;;;;;;40.26;25.48;98892.72;5072884;28;20224;-69
2023/07/20 06:28:11;;;;;;;19.20;5.90;;;;;;;40.21;25.57;98884.78;5072880;28;20257;-69
2023/07/20 06:30:38;;;;;;;12.35;6.15;;;;;;;40.16;25.21;98881.59;5072455;28;20567;-69
2023/07/20 06:33:04;;;;;;;8.10;5.30;;;;;;;40.09;25.18;98881.66;5072800;28;20219;-69
2023/07/20 06:35:31;;;;;;;5.72;5.20;;;;;;;39.94;24.56;98886.53;5071824;28;20273;-68
2023/07/20 06:38:00;;;;;;;9.30;5.97;;;;;;;40.36;25.31;98883.50;5072477;28;20253;-69
2023/07/20 06:40:27;;;;;;;7.38;5.80;;;;;;;40.31;24.79;98883.94;5071705;28;20738;-68
2023/07/20 06:42:55;;;;;;;12.20;6.35;;;;;;;40.07;24.97;98879.28;5072336;28;20192;-69
2023/07/20 06:45:21;;;;;;;13.15;5.10;;;;;;;40.18;24.79;98885.59;5072459;28;20196;-69
2023/07/20 06:47:48;;;;;;;8.32;5.45;;;;;;;40.23;24.89;98881.59;5072693;28;20191;-68
2023/07/20 06:50:15;;;;;;;14.55;5.65;;;;;;;40.12;25.20;98876.06;5072346;28;20188;-69
2023/07/20 06:52:42;;;;;;;11.35;6.05;;;;;;;39.90;25.28;98874.63;5072422;28;20321;-68
2023/07/20 06:55:09;;;;;;;13.63;5.60;;;;;;;40.11;25.24;98877.28;5072344;28;20200;-69
2023/07/20 06:57:36;;;;;;;11.43;6.38;;;;;;;40.26;25.75;98870.44;5072504;28;20188;-69
2023/07/20 07:00:06;;;;;;;13.80;6.15;;;;;;;40.20;25.49;98874.88;5071960;28;20200;-68
2023/07/20 07:02:33;;;;;;;14.25;6.28;;;;;;;40.02;25.40;98876.13;5072102;28;20594;-68
2023/07/20 07:05:00;;;;;;;18.83;6.20;;;;;;;40.22;25.06;98874.47;5072173;28;20203;-68
2023/07/20 07:07:27;;;;;;;13.68;6.55;;;;;;;39.95;25.20;98881.72;5072232;28;20199;-68
2023/07/20 07:09:53;;;;;;;10.45;6.05;;;;;;;40.20;25.28;98879.63;5072127;28;20227;-68
2023/07/20 07:12:20;;;;;;;25.35;8.02;;;;;;;40.10;25.10;98878.47;5072156;28;20191;-68
2023/07/20 07:14:47;;;;;;;24.20;6.90;;;;;;;40.08;25.70;98872.50;5072196;28;20219;-68
2023/07/20 07:17:15;;;;;;;11.90;6.40;;;;;;;40.20;24.71;98872.06;5071883;28;20655;-68
2023/07/20 07:19:42;;;;;;;9.50;5.65;;;;;;;40.17;25.17;98864.50;5072115;28;20196;-68
2023/07/20 07:22:08;;;;;;;9.27;5.30;;;;;;;40.25;25.07;98863.28;5072152;28;20227;-68
2023/07/20 07:24:35;;;;;;;8.10;5.20;;;;;;;40.29;24.85;98866.84;5072134;28;20227;-68
2023/07/20 07:27:03;;;;;;;11.32;6.65;;;;;;;40.31;25.17;98866.44;5072368;28;20195;-68
2023/07/20 07:29:30;;;;;;;11.68;5.90;;;;;;;40.23;25.22;98871.28;5072050;28;20223;-68
2023/07/20 07:31:58;;;;;;;6.38;5.28;;;;;;;40.27;25.10;98863.69;5071768;28;20214;-68
2023/07/20 07:34:26;;;;;;;11.63;5.85;;;;;;;40.20;25.29;98862.91;5071491;28;20231;-68
2023/07/20 07:36:53;;;;;;;10.15;5.18;;;;;;;40.21;25.12;98861.75;5071729;28;20196;-68
2023/07/20 07:39:20;;;;;;;11.52;5.53;;;;;;;40.07;25.73;98854.25;5071900;28;20337;-68
2023/07/20 07:41:45;;;;;;;33.95;7.68;;;;;;;40.13;25.32;98855.38;5072095;28;20261;-68
2023/07/20 07:44:12;;;;;;;9.57;5.80;;;;;;;39.81;25.54;98854.00;5071615;28;20667;-69
2023/07/20 07:46:39;;;;;;;8.10;5.50;;;;;;;39.58;25.57;98857.25;5072136;28;20191;-68
2023/07/20 07:49:05;;;;;;;12.88;5.63;;;;;;;39.82;25.58;98847.22;5071837;28;20188;-68
2023/07/20 07:51:34;;;;;;;7.25;5.43;;;;;;;39.82;25.15;98856.38;5073759;28;20188;-68
2023/07/20 07:54:00;;;;;;;11.55;5.60;;;;;;;39.90;25.09;98855.13;5075542;28;20702;-68
2023/07/20 07:56:27;;;;;;;5.55;5.07;;;;;;;39.96;24.72;98850.72;5075421;28;20192;-68
2023/07/20 07:58:54;;;;;;;13.57;6.50;;;;;;;40.03;24.93;98856.25;5075769;28;20222;-68
2023/07/20 08:01:20;;;;;;;14.02;5.53;;;;;;;40.11;24.96;98852.22;5075583;28;20199;-68
2023/07/20 08:03:47;;;;;;;8.15;5.75;;;;;;;40.14;24.82;98851.41;5075350;28;20202;-68
2023/07/20 08:06:14;;;;;;;12.43;6.05;;;;;;;40.25;24.54;98862.50;5075528;28;20587;-68
2023/07/20 08:08:43;;;;;;;9.52;6.32;;;;;;;40.33;24.78;98847.34;5075806;28;20245;-68
2023/07/20 08:11:10;;;;;;;6.97;5.63;;;;;;;40.14;24.46;98857.00;5075328;28;20203;-68
2023/07/20 08:13:37;;;;;;;8.80;5.25;;;;;;;40.19;24.62;98858.56;5075432;28;20227;-68
2023/07/20 08:16:04;;;;;;;8.80;5.72;;;;;;;40.27;25.23;98851.75;5075352;28;20251;-69
2023/07/20 08:18:31;;;;;;;7.43;5.93;;;;;;;40.26;24.58;98853.72;5075034;28;20257;-68
2023/07/20 08:20:58;;;;;;;11.60;5.68;;;;;;;40.40;24.67;98858.41;5074915;28;20196;-68
2023/07/20 08:23:25;;;;;;;7.20;5.88;;;;;;;40.56;24.40;98861.47;5074956;28;20741;-68
2023/07/20 08:25:53;;;;;;;7.85;5.80;;;;;;;40.60;24.75;98851.13;5075150;28;20274;-68
2023/07/20 08:28:20;;;;;;;11.63;5.78;;;;;;;40.71;24.15;98863.75;5074814;28;20196;-68
2023/07/20 08:30:48;;;;;;;7.50;5.70;;;;;;;40.91;23.66;98864.00;5075141;28;20194;-68
2023/07/20 08:33:16;;;;;;;14.57;5.68;;;;;;;40.95;24.17;98864.75;5075086;28;20224;-68
2023/07/20 08:35:43;;;;;;;8.23;5.40;;;;;;;40.94;23.83;98863.94;5075127;28;20226;-68
2023/07/20 08:38:10;;;;;;;11.35;5.78;;;;;;;40.99;23.95;98874.66;5075123;28;20191;-68
2023/07/20 08:40:41;;;;;;;9.88;5.65;;;;;;;40.89;23.77;98864.41;5074741;28;20628;-68
2023/07/20 08:43:09;;;;;;;10.18;5.50;;;;;;;40.90;24.45;98865.97;5074696;28;20237;-68
2023/07/20 08:45:39;;;;;;;11.75;6.38;;;;;;;40.85;24.13;98858.06;5074969;28;20192;-68
2023/07/20 08:48:06;;;;;;;8.48;5.38;;;;;;;40.80;23.97;98858.53;5074570;28;20249;-68
2023/07/20 08:50:35;;;;;;;9.23;5.82;;;;;;;40.97;24.22;98854.78;5074577;28;20661;-68
2023/07/20 08:53:02;;;;;;;8.80;6.35;;;;;;;41.13;24.14;98847.84;5074780;28;20203;-68
2023/07/20 08:55:30;;;;;;;12.13;6.30;;;;;;;41.15;23.44;98849.06;5074371;28;20219;-68
2023/07/20 08:57:58;;;;;;;8.73;5.68;;;;;;;41.08;23.96;98847.09;5074913;28;20621;-68
2023/07/20 09:00:29;;;;;;;6.60;5.90;;;;;;;40.90;24.23;98843.69;5074520;28;20192;-68
2023/07/20 09:02:56;;;;;;;9.98;5.65;;;;;;;40.49;24.85;98845.59;5074393;28;20191;-68
2023/07/20 09:05:25;;;;;;;24.73;7.53;;;;;;;40.55;24.68;98835.63;5074386;28;20200;-68
2023/07/20 09:07:53;;;;;;;8.38;5.75;;;;;;;39.70;25.26;98825.38;5074188;28;20195;-68
2023/07/20 09:10:21;;;;;;;8.15;5.68;;;;;;;39.34;25.93;98808.06;5074553;28;20196;-68
2023/07/20 09:12:48;;;;;;;7.70;6.10;;;;;;;39.85;25.40;98805.47;5073979;28;20188;-68
2023/07/20 09:15:16;;;;;;;7.57;6.13;;;;;;;39.92;25.21;98813.78;5074238;28;20216;-69
2023/07/20 09:17:48;;;;;;;35.85;7.53;;;;;;;39.97;25.31;98813.34;5074371;28;20192;-68
2023/07/20 09:20:16;;;;;;;10.52;6.00;;;;;;;40.16;24.86;98812.81;5074407;28;20191;-69
2023/07/20 09:22:44;;;;;;;7.88;7.03;;;;;;;40.06;25.09;98816.47;5074191;28;20219;-68
2023/07/20 09:25:12;;;;;;;8.43;6.28;;;;;;;40.29;25.12;98802.81;5073937;28;20262;-68
2023/07/20 09:27:40;;;;;;;13.23;6.43;;;;;;;40.27;25.29;98804.41;5074080;28;20295;-68
2023/07/20 09:30:09;;;;;;;9.30;6.32;;;;;;;40.13;24.37;98788.56;5074164;28;20187;-69
2023/07/20 09:32:40;;;;;;;12.30;6.00;;;;;;;40.05;25.40;98787.03;5073527;28;20192;-69
2023/07/20 09:35:13;;;;;;;8.60;5.82;;;;;;;39.94;25.37;98786.34;5073443;28;20240;-69
2023/07/20 09:37:40;;;;;;;7.75;6.18;;;;;;;40.28;24.89;98784.53;5073906;28;20180;-68
2023/07/20 09:40:09;;;;;;;14.55;6.32;;;;;;;39.91;26.17;98780.78;5073985;28;20188;-69
2023/07/20 09:42:37;;;;;;;14.50;6.00;;;;;;;39.90;25.19;98780.00;5073461;28;20664;-68
2023/07/20 09:45:07;;;;;;;18.67;6.50;;;;;;;39.38;25.97;98775.50;5073520;28;20229;-69
2023/07/20 09:47:37;;;;;;;9.57;6.35;;;;;;;39.76;25.18;98782.88;5073596;28;20196;-68
2023/07/20 09:50:04;;;;;;;9.90;6.57;;;;;;;39.59;25.12;98780.13;5073624;28;20192;-68
2023/07/20 09:52:32;;;;;;;9.05;5.55;;;;;;;39.43;25.35;98780.63;5073280;28;20192;-68
2023/07/20 09:55:00;;;;;;;19.35;7.20;;;;;;;39.43;25.38;98772.28;5073689;28;20220;-68
2023/07/20 09:57:27;;;;;;;10.82;6.47;;;;;;;39.80;25.21;98769.72;5073330;28;20191;-68
2023/07/20 09:59:54;;;;;;;6.88;6.10;;;;;;;40.13;25.29;98763.53;5073481;28;20196;-68
2023/07/20 10:02:23;;;;;;;11.00;6.32;;;;;;;40.13;24.68;98765.53;5073078;28;20690;-68
2023/07/20 10:04:55;;;;;;;10.02;6.20;;;;;;;40.18;24.80;98751.97;5073615;28;20229;-68
2023/07/20 10:07:24;;;;;;;6.90;6.30;;;;;;;40.30;24.50;98747.91;5073330;28;20188;-68
2023/07/20 10:09:53;;;;;;;28.98;7.55;;;;;;;40.44;24.65;98748.59;5072967;28;20227;-68
2023/07/20 10:12:23;;;;;;;8.07;6.35;;;;;;;40.53;25.04;98748.88;5073110;28;20195;-68
2023/07/20 10:15:00;;;;;;;12.05;6.32;;;;;;;40.68;24.59;98744.81;5072375;28;20223;-68
2023/07/20 10:17:27;;;;;;;21.80;6.97;;;;;;;40.77;24.82;98733.94;5072776;28;20183;-68
2023/07/20 10:19:57;;;;;;;13.02;6.45;;;;;;;40.64;24.74;98730.13;5072747;28;20659;-68
2023/07/20 10:22:27;;;;;;;11.98;6.10;;;;;;;40.54;25.15;98714.25;5072949;28;20234;-67
2023/07/20 10:24:58;;;;;;;13.00;6.20;;;;;;;40.58;25.05;98715.00;5073271;28;20261;-68
2023/07/20 10:27:25;;;;;;;9.88;6.85;;;;;;;40.77;24.99;98717.22;5072454;28;20180;-68
2023/07/20 10:29:52;;;;;;;7.50;6.30;;;;;;;40.92;24.25;98713.09;5072607;28;20811;-68
2023/07/20 10:32:20;;;;;;;9.82;5.93;;;;;;;41.07;24.62;98712.94;5072778;28;20192;-68
2023/07/20 10:34:52;;;;;;;14.35;6.13;;;;;;;41.18;24.20;98708.03;5072261;28;20254;-68
2023/07/20 10:37:55;;;;;;;12.25;6.50;;;;;;;41.31;24.35;98700.66;5072642;28;20569;-68
2023/07/20 10:40:28;;;;;;;10.85;6.63;;;;;;;40.73;25.01;98696.19;5072988;28;20210;-68
2023/07/20 10:43:01;;;;;;;10.80;7.00;;;;;;;40.93;23.98;98697.94;5072913;28;20192;-68
2023/07/20 10:45:42;;;;;;;11.65;6.13;;;;;;;41.13;23.90;98694.53;5072514;28;20190;-68
2023/07/20 10:48:16;;;;;;;9.20;5.75;;;;;;;40.98;23.58;98700.25;5072202;28;20588;-68
2023/07/20 10:50:44;;;;;;;12.05;6.60;;;;;;;41.03;23.72;98694.25;5072232;28;20279;-68
2023/07/20 10:53:15;;;;;;;14.38;6.75;;;;;;;40.85;24.31;98696.44;5072083;28;20192;-68
2023/07/20 10:55:46;;;;;;;10.07;6.47;;;;;;;40.75;24.84;98688.97;5072267;28;20216;-68
2023/07/20 10:58:14;;;;;;;14.13;7.40;;;;;;;40.78;25.01;98679.78;5072401;28;20206;-68
2023/07/20 11:00:59;;;;;;;19.90;7.15;;;;;;;40.50;24.84;98662.59;5072374;28;20198;-68
2023/07/20 11:03:33;;;;;;;9.98;5.85;;;;;;;39.63;25.33;98670.47;5072630;28;20196;-68
2023/07/20 11:06:00;;;;;;;7.43;5.82;;;;;;;39.77;24.90;98672.38;5072084;28;20184;-68
2023/07/20 11:08:41;;;;;;;8.05;5.28;;;;;;;39.36;24.89;98668.66;5072176;28;20196;-68
2023/07/20 11:11:25;;;;;;;8.88;5.60;;;;;;;39.52;24.80;98674.53;5072231;28;20199;-68
2023/07/20 11:13:59;;;;;;;121.82;12.40;;;;;;;39.63;23.95;98670.47;5071768;28;20388;-68
2023/07/20 11:16:36;;;;;;;6.00;5.50;;;;;;;39.54;24.14;98667.34;5072101;28;20274;-68
2023/07/20 11:19:03;;;;;;;13.38;6.07;;;;;;;39.73;23.93;98666.03;5072099;28;20199;-68
2023/07/20 11:21:35;;;;;;;12.93;5.07;;;;;;;39.98;23.61;98670.22;5072442;28;20196;-68
2023/07/20 11:24:04;;;;;;;6.05;4.95;;;;;;;39.81;23.58;98660.00;5071719;28;20614;-68
2023/07/20 11:26:40;;;;;;;11.55;5.70;;;;;;;39.99;23.62;98663.47;5071774;28;20633;-68
2023/07/20 11:29:07;;;;;;;22.77;6.50;;;;;;;40.23;23.57;98658.88;5072116;28;20617;-68
2023/07/20 11:31:36;;;;;;;10.68;5.45;;;;;;;40.44;24.03;98659.47;5072067;28;20277;-68
2023/07/20 11:34:03;;;;;;;10.90;5.93;;;;;;;40.63;23.53;98650.50;5072101;28;20223;-68